Accueil
METAR-TAF:

METAR-TAF

Aéroports :

Aéroport de Saint-Étienne-Loire

Saint-Etienne, France

latitude: 45-32N, longitude: 004-18E, altitude: 404 m

Observation

Le bulletin a été fait il y a 23 minutes, à 10:30 UTC
Vent 10 kt de nord/nord-ouest, variant entre ouest et nord/nord-est
Température 9°C
Humidité 66%
Pression 1017 hPa
Visibilité 10 km ou plus
Nuages épars à une hauteur de 3700 ft
Nuages fragmentés à une hauteur de 4500 ft
Ciel couvert à une hauteur de 5400 ft

METAR: LFMH 161030Z AUTO 33010KT 280V020 9999 SCT037 BKN045 OVC054 09/03 Q1017

Heure: 12:53 (10:53 UTC)


TAF: absent

Observations et prévisions météorologiques de plus de 4000 aéroports (messages METAR et TAF).

Les stations disponibles sont représentées par des disques jaunes et rouges sur la carte.

Passer la souris dessus pour voir le nom de la station.

Cliquer dessus pour voir les observations et prévisions météorologiques.

Pour changer de carte: cliquez sur les boutons verts avec une croix noire pour zoomer, sur le bouton vert avec un tiret pour effectuer un zoom arrière, ou sur les flèches vertes pour les cartes adjacentes.


METAR-TAF: